Current Weather



TAF Data Links

METAR Data Links

Latest METAR/TAF Data


Available data for KAUS from the past 2 hours
AUSTIN, TX
Metar
KAUS 271253Z 18010KT 3SM BR BKN017 OVC026 27/24 A2989 RMK AO2 SLP108 T02670239

12:53 UTC

Wind: 180° 10kt

Visibility: 3 SM

Sky: BKN 1700 ft

Temp: 27 deg C / 80.6 deg F

Dewpoint: 24 deg C / 75.2 deg F

Pressure: 29.89 inHg

TAF
KAUS 271120Z 2712/2818 17009KT 6SM BR OVC020 FM272000 19015KT P6SM SCT040 SCT250 FM280500 17012KT P6SM OVC015
Pirep (1)
HYI UA /OV HYI/TM 1226/FL014/TP C172/SK OVC014-TOP032/UNKN/RM DURC


Available data for KEDC from the past 2 hours
AUSTIN EXEC, TX
Metar
KEDC 271315Z AUTO 20009G14KT 10SM BKN017 26/24 A2991 RMK AO2

13:15 UTC

Wind: 200° 9kt

Visibility: 10 SM

Sky: BKN 1700 ft

Temp: 26 deg C / 78.8 deg F

Dewpoint: 24 deg C / 75.2 deg F

Pressure: 29.91 inHg



Available data for KRYW from the past 2 hours
LAGO VISTA, TX
Metar
KRYW 271315Z AUTO 19009KT 1 3/4SM BR OVC011 25/24 A2992 RMK AO2 T02500240

13:15 UTC

Wind: 190° 9kt

Visibility: 1.75 SM

Sky: OVC 1100 ft

Temp: 25 deg C / 77 deg F

Dewpoint: 24 deg C / 75.2 deg F

Pressure: 29.92 inHg

Pirep (1)
GRK UA /OV KBMQ/TM 1303/FL042/TP PA34/SK TOPS RPTD 042/RM FM ZHU AWC-WEB/